Redesdale, United Kingdom
Current Conditions -  °F | °C
As of 3:50 PM on Wednesday 28 Jan 2015 (Local Time) from EGOM Reporting Station
Snow Showers Snow Showers  
Wind Chill: 20°   Ceiling: 300
Heat Index: 32°   Visibility: 2.8mi
Dew Point: 32°   Wind: 21mph
Humidity: 100%   Direction: 260°W
Pressure: 29.23"   Gusts: 33mph
Location:  55.28°N, 2.28°W
Report Text: EGOM 281550Z AUTO 26018G29KT 4500 -SHSN BKN003/// BKN012/// M00/M00 Q0990
Loading
Personal Weather Stations






























Interactive Weather Map New forecast layout! Learn more

10-Day Weather Forecast

Advertisements
Track Severe Weather on mobile